Time;durP1;ratioP1;P1;durP2;ratioP2;P2;SDS_P1;SDS_P2;PMS_P1;PMS_P2;Temp;Humidity;BMP_temperature;BMP_pressure;BME280_temperature;BME280_humidity;BME280_pressure;Samples;Min_cycle;Max_cycle;Signal;HPM_P1;HPM_P2
2022/06/30 00:00:12;;;;;;;;;;;29.60;40.40;;;;;;5053904;28;19913;-76
2022/06/30 00:02:38;;;;;;;;;;;29.60;40.30;;;;;;5035177;28;19909;-76
2022/06/30 00:05:04;;;;;;;;;;;29.70;40.10;;;;;;5035555;28;19921;-75
2022/06/30 00:07:29;;;;;;;;;;;29.60;40.10;;;;;;5034762;28;20434;-76
2022/06/30 00:09:55;;;;;;;;;;;29.60;40.30;;;;;;5015955;28;19917;-76
2022/06/30 00:12:20;;;;;;;;;;;29.60;40.40;;;;;;5032288;28;19913;-76
2022/06/30 00:14:45;;;;;;;;;;;29.60;40.50;;;;;;5032091;28;20477;-77
2022/06/30 00:17:11;;;;;;;;;;;29.50;40.40;;;;;;5014968;28;19952;-76
2022/06/30 00:19:36;;;;;;;;;;;29.50;40.50;;;;;;5033570;28;19967;-76
2022/06/30 00:22:04;;;;;;;;;;;29.60;40.50;;;;;;5035360;28;19916;-76
2022/06/30 00:24:29;;;;;;;;;;;29.50;40.50;;;;;;5035841;28;19913;-75
2022/06/30 00:26:55;;;;;;;;;;;29.50;40.50;;;;;;5053087;28;19962;-75
2022/06/30 00:29:20;;;;;;;;;;;29.60;40.50;;;;;;5035726;28;19920;-75
2022/06/30 00:31:46;;;;;;;;;;;29.50;40.50;;;;;;5018279;28;20369;-76
2022/06/30 00:34:12;;;;;;;;;;;29.50;40.50;;;;;;5035507;28;19951;-76
2022/06/30 00:36:37;;;;;;;;;;;29.50;40.50;;;;;;5035266;28;19970;-77
2022/06/30 00:39:03;;;;;;;;;;;29.50;40.50;;;;;;5035300;28;19975;-75
2022/06/30 00:41:28;;;;;;;;;;;29.50;40.50;;;;;;5018357;28;19909;-75
2022/06/30 00:43:53;;;;;;;;;;;29.50;40.50;;;;;;5018836;28;19908;-77
2022/06/30 00:46:19;;;;;;;;;;;29.50;40.50;;;;;;5034761;28;19956;-76
2022/06/30 00:48:44;;;;;;;;;;;29.50;40.50;;;;;;5035360;28;19913;-75
2022/06/30 00:51:10;;;;;;;;;;;29.50;40.50;;;;;;5035281;28;19913;-75
2022/06/30 00:53:36;;;;;;;;;;;29.40;40.40;;;;;;5035105;28;20004;-74
2022/06/30 00:56:03;;;;;;;;;;;29.40;40.40;;;;;;5052893;28;19990;-76
2022/06/30 00:58:28;;;;;;;;;;;29.40;40.40;;;;;;5052857;28;20317;-76
2022/06/30 01:00:53;;;;;;;;;;;29.40;40.40;;;;;;5017594;28;19963;-76
2022/06/30 01:03:19;;;;;;;;;;;29.40;40.50;;;;;;5017927;28;19919;-76
2022/06/30 01:05:45;;;;;;;;;;;29.40;40.70;;;;;;5032285;28;19975;-76
2022/06/30 01:08:11;;;;;;;;;;;29.40;40.40;;;;;;5036696;28;19917;-76
2022/06/30 01:13:31;;;;;;;;;;;29.40;40.70;;;;;;4981152;28;20103;-76
2022/06/30 01:15:56;;;;;;;;;;;29.40;40.80;;;;;;4999909;28;19948;-76
2022/06/30 01:18:22;;;;;;;;;;;29.40;40.60;;;;;;5015333;28;19916;-76
2022/06/30 01:20:47;;;;;;;;;;;29.40;40.70;;;;;;5040623;28;19909;-75
2022/06/30 01:23:13;;;;;;;;;;;29.40;40.60;;;;;;5018783;28;19920;-76
2022/06/30 01:25:38;;;;;;;;;;;29.40;40.80;;;;;;5035705;28;19963;-75
2022/06/30 01:28:04;;;;;;;;;;;29.40;40.80;;;;;;5035119;28;20540;-76
2022/06/30 01:30:29;;;;;;;;;;;29.40;40.70;;;;;;5018834;28;19917;-75
2022/06/30 01:32:55;;;;;;;;;;;29.30;40.90;;;;;;5034712;28;19909;-75
2022/06/30 01:35:20;;;;;;;;;;;29.30;41.00;;;;;;5027654;28;19916;-76
2022/06/30 01:37:54;;;;;;;;;;;29.30;40.90;;;;;;5015727;28;20334;-76
2022/06/30 01:40:20;;;;;;;;;;;29.30;40.90;;;;;;5016291;28;19914;-77
2022/06/30 01:42:45;;;;;;;;;;;29.30;41.00;;;;;;5015619;28;19917;-76
2022/06/30 01:45:11;;;;;;;;;;;29.30;41.00;;;;;;5020229;28;19951;-76
2022/06/30 01:47:36;;;;;;;;;;;29.30;41.10;;;;;;5018109;28;20384;-76
2022/06/30 01:50:03;;;;;;;;;;;29.20;41.10;;;;;;5018636;28;19913;-77
2022/06/30 01:52:29;;;;;;;;;;;29.30;41.00;;;;;;5018501;28;20124;-76
2022/06/30 01:54:54;;;;;;;;;;;29.30;41.00;;;;;;5035213;28;19931;-76
2022/06/30 01:57:20;;;;;;;;;;;29.30;41.00;;;;;;5036349;28;19913;-76
2022/06/30 01:59:45;;;;;;;;;;;29.20;41.00;;;;;;5035231;28;19996;-77
2022/06/30 02:02:11;;;;;;;;;;;29.20;41.00;;;;;;5034142;28;20373;-76
2022/06/30 02:04:50;;;;;;;;;;;29.20;41.10;;;;;;5034565;28;20300;-76
2022/06/30 02:07:16;;;;;;;;;;;29.20;41.20;;;;;;5034316;28;19988;-75
2022/06/30 02:09:42;;;;;;;;;;;29.20;41.10;;;;;;5033969;28;20346;-75
2022/06/30 02:14:51;;;;;;;;;;;29.20;41.10;;;;;;5020024;28;19920;-75
2022/06/30 02:17:17;;;;;;;;;;;29.20;41.20;;;;;;5015044;28;19913;-75
2022/06/30 02:19:42;;;;;;;;;;;29.20;41.30;;;;;;5017261;28;19972;-76
2022/06/30 02:22:08;;;;;;;;;;;29.20;41.40;;;;;;5014733;28;19916;-75
2022/06/30 02:24:33;;;;;;;;;;;29.10;41.40;;;;;;5015097;28;19921;-76
2022/06/30 02:26:58;;;;;;;;;;;29.10;41.40;;;;;;5015877;28;20015;-76
2022/06/30 02:29:24;;;;;;;;;;;29.10;41.40;;;;;;5014753;28;19925;-76
2022/06/30 02:31:49;;;;;;;;;;;29.10;41.40;;;;;;4997407;28;19917;-76
2022/06/30 02:34:15;;;;;;;;;;;29.10;41.40;;;;;;5014304;28;19945;-77
2022/06/30 02:36:40;;;;;;;;;;;29.10;41.40;;;;;;5021630;28;19909;-76
2022/06/30 02:39:06;;;;;;;;;;;29.10;41.40;;;;;;5035230;28;19932;-76
2022/06/30 02:41:31;;;;;;;;;;;29.10;41.30;;;;;;5034155;28;20043;-75
2022/06/30 02:43:58;;;;;;;;;;;29.20;41.30;;;;;;5034196;28;19924;-76
2022/06/30 02:46:24;;;;;;;;;;;29.20;41.30;;;;;;5033550;28;20384;-75
2022/06/30 02:48:49;;;;;;;;;;;29.20;41.20;;;;;;5034347;28;19913;-75
2022/06/30 02:51:15;;;;;;;;;;;29.20;41.30;;;;;;5035680;28;19963;-75
2022/06/30 02:53:40;;;;;;;;;;;29.10;41.30;;;;;;5035272;28;19962;-76
2022/06/30 02:56:05;;;;;;;;;;;29.20;41.40;;;;;;5034474;28;19909;-75
2022/06/30 02:58:31;;;;;;;;;;;29.20;41.40;;;;;;5033786;28;19910;-76
2022/06/30 03:00:56;;;;;;;;;;;29.10;41.40;;;;;;5033106;28;19913;-76
2022/06/30 03:03:22;;;;;;;;;;;29.10;41.50;;;;;;5033046;28;19913;-76
2022/06/30 03:05:47;;;;;;;;;;;29.10;41.40;;;;;;5014565;28;19922;-75
2022/06/30 03:08:13;;;;;;;;;;;29.10;41.50;;;;;;5013616;28;19910;-75
2022/06/30 03:10:38;;;;;;;;;;;29.10;41.50;;;;;;5013776;28;19952;-76
2022/06/30 03:13:03;;;;;;;;;;;29.10;41.50;;;;;;5014917;28;20312;-76
2022/06/30 03:15:29;;;;;;;;;;;29.10;41.60;;;;;;5014272;28;19963;-77
2022/06/30 03:17:56;;;;;;;;;;;29.10;41.70;;;;;;5013760;28;19913;-77
2022/06/30 03:20:22;;;;;;;;;;;29.00;41.60;;;;;;5003819;28;19994;-76
2022/06/30 03:22:48;;;;;;;;;;;29.00;41.80;;;;;;4995385;28;20327;-76
2022/06/30 03:25:13;;;;;;;;;;;28.90;41.90;;;;;;4995130;28;19948;-76
2022/06/30 03:27:38;;;;;;;;;;;28.90;41.90;;;;;;5002155;28;19925;-75
2022/06/30 03:30:04;;;;;;;;;;;29.00;42.00;;;;;;4997643;28;20431;-76
2022/06/30 03:32:30;;;;;;;;;;;29.00;41.90;;;;;;5013708;28;19910;-75
2022/06/30 03:34:55;;;;;;;;;;;28.90;41.90;;;;;;5008669;28;19921;-76
2022/06/30 03:37:20;;;;;;;;;;;28.90;42.00;;;;;;4978254;28;19960;-77
2022/06/30 03:39:46;;;;;;;;;;;28.80;42.20;;;;;;5012203;28;19909;-76
2022/06/30 03:42:11;;;;;;;;;;;28.80;42.20;;;;;;5014037;28;19910;-75
2022/06/30 03:44:37;;;;;;;;;;;28.80;42.30;;;;;;4997787;28;19919;-76
2022/06/30 03:47:03;;;;;;;;;;;28.80;42.50;;;;;;5013048;28;19917;-76
2022/06/30 03:49:28;;;;;;;;;;;28.70;42.50;;;;;;5013574;28;20289;-77
2022/06/30 03:51:53;;;;;;;;;;;28.60;42.60;;;;;;4997456;28;20368;-77
2022/06/30 03:54:19;;;;;;;;;;;28.60;42.70;;;;;;4997803;28;19913;-76
2022/06/30 03:56:45;;;;;;;;;;;28.60;42.70;;;;;;5014972;28;19916;-76
2022/06/30 03:59:10;;;;;;;;;;;28.60;42.80;;;;;;4997568;28;20341;-76
2022/06/30 04:01:35;;;;;;;;;;;28.60;43.00;;;;;;4996685;28;19932;-77
2022/06/30 04:04:01;;;;;;;;;;;28.60;43.10;;;;;;5019332;28;19969;-76
2022/06/30 04:06:26;;;;;;;;;;;28.50;43.10;;;;;;5036304;28;19919;-76
2022/06/30 04:08:52;;;;;;;;;;;28.50;43.10;;;;;;5020365;28;19948;-76
2022/06/30 04:11:17;;;;;;;;;;;28.50;43.10;;;;;;5036355;28;20375;-76
2022/06/30 04:13:43;;;;;;;;;;;28.50;43.20;;;;;;5016518;28;19986;-76
2022/06/30 04:16:08;;;;;;;;;;;28.50;43.20;;;;;;5033537;28;19967;-77
2022/06/30 04:18:34;;;;;;;;;;;28.40;43.20;;;;;;5040587;28;19920;-78
2022/06/30 04:21:00;;;;;;;;;;;28.40;43.30;;;;;;5032695;28;19956;-75
2022/06/30 04:23:25;;;;;;;;;;;28.40;43.40;;;;;;5033596;28;19909;-76
2022/06/30 04:25:50;;;;;;;;;;;28.40;43.40;;;;;;5032566;28;19956;-76
2022/06/30 04:28:16;;;;;;;;;;;28.30;43.50;;;;;;5031947;28;19923;-76
2022/06/30 04:33:25;;;;;;;;;;;28.30;43.50;;;;;;5031850;28;19952;-76
2022/06/30 04:35:51;;;;;;;;;;;28.40;43.50;;;;;;5042603;28;19956;-76
2022/06/30 04:38:16;;;;;;;;;;;28.40;43.50;;;;;;5034823;28;19917;-76
2022/06/30 04:43:26;;;;;;;;;;;28.30;43.60;;;;;;5038140;28;19916;-76
2022/06/30 04:45:51;;;;;;;;;;;28.30;43.70;;;;;;5053207;28;19912;-75
2022/06/30 04:48:17;;;;;;;;;;;28.30;43.70;;;;;;5035540;28;19999;-76
2022/06/30 04:50:42;;;;;;;;;;;28.30;43.80;;;;;;5054210;28;19966;-76
2022/06/30 04:53:07;;;;;;;;;;;28.30;43.80;;;;;;5053982;28;20454;-76
2022/06/30 04:55:33;;;;;;;;;;;28.40;43.80;;;;;;5018824;28;19935;-77
2022/06/30 04:57:59;;;;;;;;;;;28.40;43.90;;;;;;5035109;28;20003;-76
2022/06/30 05:00:24;;;;;;;;;;;28.40;43.80;;;;;;5035364;28;19920;-77
2022/06/30 05:02:50;;;;;;;;;;;28.40;43.80;;;;;;5028751;28;19916;-76
2022/06/30 05:05:15;;;;;;;;;;;28.40;43.70;;;;;;4998592;28;19921;-76
2022/06/30 05:07:40;;;;;;;;;;;28.40;43.70;;;;;;5015610;28;19964;-75
2022/06/30 05:10:06;;;;;;;;;;;28.50;43.80;;;;;;5009503;28;20387;-76
2022/06/30 05:12:32;;;;;;;;;;;28.50;43.70;;;;;;5018610;28;19995;-75
2022/06/30 05:14:58;;;;;;;;;;;28.50;43.70;;;;;;5035038;28;19913;-76
2022/06/30 05:17:24;;;;;;;;;;;28.50;43.70;;;;;;5034163;28;20327;-76
2022/06/30 05:19:49;;;;;;;;;;;28.50;43.80;;;;;;5028662;28;19917;-76
2022/06/30 05:22:15;;;;;;;;;;;28.50;43.80;;;;;;5014717;28;20023;-75
2022/06/30 05:27:25;;;;;;;;;;;28.40;44.00;;;;;;5030973;28;20008;-76
2022/06/30 05:29:50;;;;;;;;;;;28.40;44.10;;;;;;5019110;28;19953;-76
2022/06/30 05:32:16;;;;;;;;;;;28.40;44.10;;;;;;5034284;28;19964;-76
2022/06/30 05:34:41;;;;;;;;;;;28.40;44.10;;;;;;5032556;28;19920;-77
2022/06/30 05:37:06;;;;;;;;;;;28.40;44.10;;;;;;4998518;28;20004;-76
2022/06/30 05:39:32;;;;;;;;;;;28.50;44.10;;;;;;5032880;28;19955;-76
2022/06/30 05:42:01;;;;;;;;;;;28.50;44.10;;;;;;5014856;28;19913;-75
2022/06/30 05:44:30;;;;;;;;;;;28.50;44.00;;;;;;5029320;28;20013;-76
2022/06/30 05:46:55;;;;;;;;;;;28.50;44.00;;;;;;5034090;28;19992;-76
2022/06/30 05:49:21;;;;;;;;;;;28.50;44.10;;;;;;5052600;28;20012;-77
2022/06/30 05:51:47;;;;;;;;;;;28.50;44.10;;;;;;5033142;28;19940;-76
2022/06/30 05:54:12;;;;;;;;;;;28.50;44.10;;;;;;5037650;28;19913;-77
2022/06/30 05:56:38;;;;;;;;;;;28.50;44.10;;;;;;5022358;28;19912;-75
2022/06/30 05:59:03;;;;;;;;;;;28.50;44.00;;;;;;5038598;28;19908;-75
2022/06/30 06:01:29;;;;;;;;;;;28.50;44.00;;;;;;5055768;28;19963;-76
2022/06/30 06:03:54;;;;;;;;;;;28.50;44.10;;;;;;5038516;28;19916;-75
2022/06/30 06:06:19;;;;;;;;;;;28.50;44.20;;;;;;5022444;28;19976;-76
2022/06/30 06:08:45;;;;;;;;;;;28.50;44.10;;;;;;5019121;28;20311;-75
2022/06/30 06:11:10;;;;;;;;;;;28.60;44.50;;;;;;5026391;28;19919;-76
2022/06/30 06:13:36;;;;;;;;;;;28.60;44.50;;;;;;5029808;28;20393;-76
2022/06/30 06:16:01;;;;;;;;;;;28.60;44.10;;;;;;5037733;28;19948;-76
2022/06/30 06:18:27;;;;;;;;;;;28.70;44.00;;;;;;5055223;28;19913;-76
2022/06/30 06:20:52;;;;;;;;;;;28.70;44.10;;;;;;5021892;28;20353;-76
2022/06/30 06:23:18;;;;;;;;;;;28.70;44.20;;;;;;5021285;28;20339;-75
2022/06/30 06:25:43;;;;;;;;;;;28.60;44.10;;;;;;5020359;28;20016;-75
2022/06/30 06:30:53;;;;;;;;;;;28.70;44.20;;;;;;5036079;28;20407;-75
2022/06/30 06:33:18;;;;;;;;;;;28.60;44.20;;;;;;5035261;28;19955;-77
2022/06/30 06:35:44;;;;;;;;;;;28.60;44.20;;;;;;5001881;28;19913;-75
2022/06/30 06:38:09;;;;;;;;;;;28.70;44.30;;;;;;5004814;28;20020;-76
2022/06/30 06:40:35;;;;;;;;;;;28.60;44.40;;;;;;5018088;28;19909;-76
2022/06/30 06:43:00;;;;;;;;;;;28.60;44.40;;;;;;5017817;28;19954;-76
2022/06/30 06:45:26;;;;;;;;;;;28.70;44.50;;;;;;5018475;28;19909;-76
2022/06/30 06:47:51;;;;;;;;;;;28.70;44.40;;;;;;5017185;28;20285;-76
2022/06/30 06:50:17;;;;;;;;;;;28.70;44.30;;;;;;5035537;28;20055;-76
2022/06/30 06:52:42;;;;;;;;;;;28.70;44.40;;;;;;5017791;28;19909;-75
2022/06/30 06:55:08;;;;;;;;;;;28.60;44.50;;;;;;5017563;28;19935;-76
2022/06/30 06:57:40;;;;;;;;;;;28.60;44.60;;;;;;5017791;28;19915;-75
2022/06/30 07:00:06;;;;;;;;;;;28.60;44.70;;;;;;5018498;28;19916;-76
2022/06/30 07:02:32;;;;;;;;;;;28.60;44.70;;;;;;5019687;28;19920;-75
2022/06/30 07:04:57;;;;;;;;;;;28.50;44.70;;;;;;5030242;28;19973;-76
2022/06/30 07:07:22;;;;;;;;;;;28.50;44.80;;;;;;5023998;28;20017;-75
2022/06/30 07:09:48;;;;;;;;;;;28.60;44.80;;;;;;5033080;28;20322;-75
2022/06/30 07:12:13;;;;;;;;;;;28.60;44.70;;;;;;5029709;28;20372;-76
2022/06/30 07:14:39;;;;;;;;;;;28.60;44.70;;;;;;5031141;28;20004;-76
2022/06/30 07:17:04;;;;;;;;;;;28.60;44.80;;;;;;5032210;28;19963;-75
2022/06/30 07:19:30;;;;;;;;;;;28.60;44.70;;;;;;5033739;28;19921;-76
2022/06/30 07:21:55;;;;;;;;;;;28.70;44.70;;;;;;5033135;28;19913;-77
2022/06/30 07:24:21;;;;;;;;;;;28.70;44.70;;;;;;5012576;28;20055;-77
2022/06/30 07:26:46;;;;;;;;;;;28.70;44.70;;;;;;5031114;28;19916;-77
2022/06/30 07:29:12;;;;;;;;;;;28.70;44.60;;;;;;5017356;28;19971;-77
2022/06/30 07:31:38;;;;;;;;;;;28.80;44.60;;;;;;5034186;28;20356;-75
2022/06/30 07:34:03;;;;;;;;;;;28.70;44.60;;;;;;5032888;28;19913;-75
2022/06/30 07:36:29;;;;;;;;;;;28.70;44.70;;;;;;5032484;28;19960;-77
2022/06/30 07:38:54;;;;;;;;;;;28.70;44.80;;;;;;5016252;28;19953;-76
2022/06/30 07:41:20;;;;;;;;;;;28.70;44.80;;;;;;5033398;28;19909;-76
2022/06/30 07:43:46;;;;;;;;;;;28.80;44.80;;;;;;5016716;28;20345;-76
2022/06/30 07:46:12;;;;;;;;;;;28.80;44.70;;;;;;5032896;28;20455;-76
2022/06/30 07:48:37;;;;;;;;;;;28.80;44.70;;;;;;5016127;28;20013;-76
2022/06/30 07:51:03;;;;;;;;;;;28.90;44.70;;;;;;5034147;28;19956;-75
2022/06/30 07:53:28;;;;;;;;;;;28.90;45.40;;;;;;5032698;28;19909;-76
2022/06/30 07:55:53;;;;;;;;;;;28.90;44.80;;;;;;5016520;28;19916;-75
2022/06/30 07:58:19;;;;;;;;;;;28.80;44.90;;;;;;5032625;28;20365;-75
2022/06/30 08:00:44;;;;;;;;;;;28.80;44.90;;;;;;5029566;28;20331;-76
2022/06/30 08:03:10;;;;;;;;;;;29.00;45.00;;;;;;5017593;28;19913;-77
2022/06/30 08:05:35;;;;;;;;;;;29.00;44.90;;;;;;5022380;28;19921;-76
2022/06/30 08:08:01;;;;;;;;;;;29.00;44.80;;;;;;4990490;28;20016;-76
2022/06/30 08:10:26;;;;;;;;;;;29.00;45.10;;;;;;5011357;28;20377;-75
2022/06/30 08:12:52;;;;;;;;;;;29.00;45.00;;;;;;5012278;28;19936;-76
2022/06/30 08:15:17;;;;;;;;;;;29.00;45.10;;;;;;5011944;28;20379;-76
2022/06/30 08:17:43;;;;;;;;;;;29.00;45.30;;;;;;5009323;28;20004;-76
2022/06/30 08:20:08;;;;;;;;;;;29.00;45.40;;;;;;4999336;28;20014;-75
2022/06/30 08:22:34;;;;;;;;;;;29.00;45.40;;;;;;4995751;28;19925;-76
2022/06/30 08:24:59;;;;;;;;;;;29.00;45.40;;;;;;4996151;28;19972;-76
2022/06/30 08:27:25;;;;;;;;;;;29.00;45.40;;;;;;5013288;28;20472;-75
2022/06/30 08:29:50;;;;;;;;;;;29.00;45.50;;;;;;5010658;28;19920;-76
2022/06/30 08:32:16;;;;;;;;;;;29.00;45.60;;;;;;4992910;28;19918;-76
2022/06/30 08:34:41;;;;;;;;;;;29.10;45.70;;;;;;5013230;28;19913;-77
2022/06/30 08:37:08;;;;;;;;;;;29.10;45.50;;;;;;5006942;28;20012;-75
2022/06/30 08:42:19;;;;;;;;;;;29.10;45.10;;;;;;5011795;28;20040;-76
2022/06/30 08:45:13;;;;;;;;;;;29.20;45.30;;;;;;5012097;28;19914;-75
2022/06/30 08:47:29;;;;;;;;;;;29.10;45.10;;;;;;5011540;28;19913;-76
2022/06/30 08:49:55;;;;;;;;;;;29.10;44.90;;;;;;5011384;28;19913;-75
2022/06/30 08:52:20;;;;;;;;;;;29.10;45.00;;;;;;5011204;28;19910;-75
2022/06/30 08:54:46;;;;;;;;;;;29.10;44.90;;;;;;4995132;28;19910;-75
2022/06/30 08:57:11;;;;;;;;;;;29.00;44.80;;;;;;4994866;28;20007;-75
2022/06/30 08:59:37;;;;;;;;;;;29.00;45.00;;;;;;5011585;28;19920;-75
2022/06/30 09:02:03;;;;;;;;;;;29.00;45.00;;;;;;5010729;28;19910;-76
2022/06/30 09:04:29;;;;;;;;;;;29.10;44.80;;;;;;4998489;28;19925;-77
2022/06/30 09:06:55;;;;;;;;;;;29.10;44.60;;;;;;5030029;28;19924;-75
2022/06/30 09:09:20;;;;;;;;;;;29.10;44.60;;;;;;5014220;28;19913;-75
2022/06/30 09:11:50;;;;;;;;;;;29.00;44.50;;;;;;5029167;28;19917;-76
2022/06/30 09:14:29;;;;;;;;;;;29.00;44.30;;;;;;5009898;28;19920;-75
2022/06/30 09:16:55;;;;;;;;;;;29.00;44.40;;;;;;5010484;28;19917;-75
2022/06/30 09:19:20;;;;;;;;;;;29.10;44.30;;;;;;5028110;28;19928;-75
2022/06/30 09:22:00;;;;;;;;;;;29.10;44.30;;;;;;5025226;28;20281;-76
2022/06/30 09:24:27;;;;;;;;;;;29.10;44.40;;;;;;5012498;28;19941;-75
2022/06/30 09:27:06;;;;;;;;;;;29.10;44.40;;;;;;5025677;28;19971;-75
2022/06/30 09:29:32;;;;;;;;;;;29.20;44.20;;;;;;5034925;28;19913;-75
2022/06/30 09:31:57;;;;;;;;;;;29.20;44.10;;;;;;5017575;28;20249;-75
2022/06/30 09:34:23;;;;;;;;;;;29.20;43.80;;;;;;5017090;28;19913;-76
2022/06/30 09:36:49;;;;;;;;;;;29.20;43.80;;;;;;5019688;28;19913;-75
2022/06/30 09:39:15;;;;;;;;;;;29.20;44.00;;;;;;5032820;28;19917;-76
2022/06/30 09:41:41;;;;;;;;;;;29.20;43.80;;;;;;5015071;28;19910;-76
2022/06/30 09:44:07;;;;;;;;;;;29.20;43.60;;;;;;5035994;28;19932;-75
2022/06/30 09:46:36;;;;;;;;;;;29.10;43.50;;;;;;5016457;28;19917;-76
2022/06/30 09:49:02;;;;;;;;;;;29.00;43.60;;;;;;5031209;28;20398;-76
2022/06/30 09:51:29;;;;;;;;;;;29.00;43.70;;;;;;5017097;28;20312;-75
2022/06/30 09:54:08;;;;;;;;;;;29.10;44.00;;;;;;5029703;28;19926;-75
2022/06/30 09:56:34;;;;;;;;;;;29.10;43.80;;;;;;5013805;28;19924;-76
2022/06/30 09:58:59;;;;;;;;;;;29.00;44.30;;;;;;5029113;28;20000;-75
2022/06/30 10:01:25;;;;;;;;;;;29.00;43.80;;;;;;5008870;28;20380;-76
2022/06/30 10:03:59;;;;;;;;;;;29.00;43.90;;;;;;5031160;28;20292;-76
2022/06/30 10:06:24;;;;;;;;;;;29.00;43.90;;;;;;5019103;28;19912;-75
2022/06/30 10:08:50;;;;;;;;;;;29.00;43.90;;;;;;5033772;28;19962;-78
2022/06/30 10:11:15;;;;;;;;;;;29.10;43.80;;;;;;5037602;28;20214;-75
2022/06/30 10:13:41;;;;;;;;;;;29.20;43.90;;;;;;5019177;28;20295;-76
2022/06/30 10:16:07;;;;;;;;;;;29.20;43.70;;;;;;5033120;28;20286;-76
2022/06/30 10:18:35;;;;;;;;;;;29.30;43.50;;;;;;5019984;28;19999;-75
2022/06/30 10:21:01;;;;;;;;;;;29.40;43.70;;;;;;5033273;28;19914;-75
2022/06/30 10:23:26;;;;;;;;;;;29.30;43.50;;;;;;5027933;28;19958;-75
2022/06/30 10:25:52;;;;;;;;;;;29.20;44.40;;;;;;5055381;28;19912;-76
2022/06/30 10:28:18;;;;;;;;;;;29.20;44.10;;;;;;5037286;28;20335;-76
2022/06/30 10:30:52;;;;;;;;;;;29.20;44.10;;;;;;5055291;28;20429;-76
2022/06/30 10:33:50;;;;;;;;;;;29.30;43.80;;;;;;5050208;28;19917;-76
2022/06/30 10:36:32;;;;;;;;;;;29.30;43.90;;;;;;5018358;28;19931;-75
2022/06/30 10:39:00;;;;;;;;;;;29.40;43.80;;;;;;5017764;28;19999;-75
2022/06/30 10:41:26;;;;;;;;;;;29.40;43.70;;;;;;5020397;28;20596;-75
2022/06/30 10:44:03;;;;;;;;;;;29.50;43.70;;;;;;5055042;28;20008;-75
2022/06/30 10:46:32;;;;;;;;;;;29.50;43.60;;;;;;5054369;28;20351;-75
2022/06/30 10:48:58;;;;;;;;;;;29.60;43.70;;;;;;5043887;28;20415;-76
2022/06/30 10:51:23;;;;;;;;;;;29.60;43.70;;;;;;5032042;28;20015;-75
2022/06/30 10:53:50;;;;;;;;;;;29.60;43.60;;;;;;5030502;28;19964;-76
2022/06/30 10:56:16;;;;;;;;;;;29.60;43.80;;;;;;5017537;28;20007;-75
2022/06/30 10:59:17;;;;;;;;;;;29.60;43.60;;;;;;5029568;28;20011;-76
2022/06/30 11:02:03;;;;;;;;;;;29.60;43.70;;;;;;4954122;28;19918;-76
2022/06/30 11:04:28;;;;;;;;;;;29.70;44.00;;;;;;5034360;28;19925;-75
2022/06/30 11:06:58;;;;;;;;;;;29.70;43.80;;;;;;5036524;28;20379;-74
2022/06/30 11:09:42;;;;;;;;;;;29.70;43.90;;;;;;5054015;28;19999;-74
2022/06/30 11:12:07;;;;;;;;;;;29.60;44.00;;;;;;5054205;28;19940;-76
2022/06/30 11:14:32;;;;;;;;;;;29.60;43.90;;;;;;5036377;28;19959;-76
2022/06/30 11:16:58;;;;;;;;;;;29.70;44.00;;;;;;5052894;28;19923;-75
2022/06/30 11:19:24;;;;;;;;;;;29.80;43.80;;;;;;5020278;28;19963;-76
2022/06/30 11:21:50;;;;;;;;;;;29.80;43.80;;;;;;5049243;28;20376;-76
2022/06/30 11:24:15;;;;;;;;;;;29.80;43.80;;;;;;5016981;28;19912;-77
2022/06/30 11:29:28;;;;;;;;;;;29.70;44.10;;;;;;5034738;28;19923;-76
2022/06/30 11:31:57;;;;;;;;;;;29.70;44.20;;;;;;5039633;28;19914;-76
2022/06/30 11:34:23;;;;;;;;;;;29.70;44.10;;;;;;5023773;28;19909;-76
2022/06/30 11:36:48;;;;;;;;;;;29.80;44.00;;;;;;5031290;28;19940;-77
2022/06/30 11:39:14;;;;;;;;;;;29.90;44.10;;;;;;5050070;28;19924;-76
2022/06/30 11:42:01;;;;;;;;;;;29.90;44.10;;;;;;5035873;28;19913;-75
2022/06/30 11:44:34;;;;;;;;;;;29.90;44.10;;;;;;5054131;28;19943;-76
2022/06/30 11:47:05;;;;;;;;;;;29.90;43.80;;;;;;5035338;28;19912;-76
2022/06/30 11:49:38;;;;;;;;;;;30.00;43.80;;;;;;5053737;28;19913;-76
2022/06/30 11:52:11;;;;;;;;;;;30.10;43.80;;;;;;5035244;28;19913;-76
2022/06/30 11:54:37;;;;;;;;;;;30.10;43.80;;;;;;5020554;28;19967;-74
2022/06/30 11:57:02;;;;;;;;;;;30.10;43.80;;;;;;5035569;28;19956;-76
2022/06/30 11:59:27;;;;;;;;;;;30.20;43.80;;;;;;5054454;28;19920;-76
2022/06/30 12:02:00;;;;;;;;;;;30.20;43.80;;;;;;5016925;28;19908;-75
2022/06/30 12:04:26;;;;;;;;;;;30.20;43.70;;;;;;5018630;28;19921;-75
2022/06/30 12:06:51;;;;;;;;;;;30.20;43.80;;;;;;5034307;28;19920;-75
2022/06/30 12:09:17;;;;;;;;;;;30.30;43.90;;;;;;5035543;28;19917;-75
2022/06/30 12:11:42;;;;;;;;;;;30.30;43.80;;;;;;5018941;28;19909;-76
2022/06/30 12:14:08;;;;;;;;;;;30.20;44.10;;;;;;5020024;28;19925;-77
2022/06/30 12:16:33;;;;;;;;;;;30.10;44.20;;;;;;5019343;28;19920;-77
2022/06/30 12:18:59;;;;;;;;;;;30.10;44.50;;;;;;5035111;28;19921;-77
2022/06/30 12:21:25;;;;;;;;;;;30.10;44.60;;;;;;5055028;28;19909;-77
2022/06/30 12:23:50;;;;;;;;;;;30.00;44.70;;;;;;5037176;28;19999;-76
2022/06/30 12:26:16;;;;;;;;;;;30.10;44.70;;;;;;5016937;28;19909;-77
2022/06/30 12:28:47;;;;;;;;;;;30.20;44.50;;;;;;5035132;28;19909;-76
2022/06/30 12:31:23;;;;;;;;;;;30.20;44.40;;;;;;5021257;28;19913;-77
2022/06/30 12:33:49;;;;;;;;;;;30.20;44.20;;;;;;5036982;28;20007;-75
2022/06/30 12:36:15;;;;;;;;;;;30.30;44.30;;;;;;5020225;28;19989;-76
2022/06/30 12:38:40;;;;;;;;;;;30.20;44.40;;;;;;5036543;28;20408;-76
2022/06/30 12:41:06;;;;;;;;;;;30.20;44.40;;;;;;5037194;28;19909;-75
2022/06/30 12:43:40;;;;;;;;;;;30.30;44.50;;;;;;5036126;28;19909;-76
2022/06/30 12:46:06;;;;;;;;;;;30.30;44.50;;;;;;5016582;28;19917;-75
2022/06/30 12:48:38;;;;;;;;;;;30.30;44.50;;;;;;5012799;28;20345;-75
2022/06/30 12:51:04;;;;;;;;;;;30.30;45.10;;;;;;5018286;28;19972;-76
2022/06/30 12:53:29;;;;;;;;;;;30.30;44.60;;;;;;5016597;28;19913;-75
2022/06/30 12:55:55;;;;;;;;;;;30.30;44.50;;;;;;5026056;28;19913;-75
2022/06/30 12:58:20;;;;;;;;;;;30.40;44.60;;;;;;5051444;28;19912;-76
2022/06/30 13:00:46;;;;;;;;;;;30.40;44.60;;;;;;5020199;28;19916;-76
2022/06/30 13:03:13;;;;;;;;;;;30.40;44.70;;;;;;5035034;28;20280;-75
2022/06/30 13:05:39;;;;;;;;;;;30.40;44.80;;;;;;5019117;28;19924;-77
2022/06/30 13:08:04;;;;;;;;;;;30.40;44.90;;;;;;5017028;28;19920;-76
2022/06/30 13:13:14;;;;;;;;;;;30.40;44.90;;;;;;5034531;28;20424;-76
2022/06/30 13:15:39;;;;;;;;;;;30.40;44.80;;;;;;5016565;28;19913;-76
2022/06/30 13:18:05;;;;;;;;;;;30.40;44.80;;;;;;5033866;28;19917;-77
2022/06/30 13:20:30;;;;;;;;;;;30.40;44.80;;;;;;5016844;28;19910;-76
2022/06/30 13:22:56;;;;;;;;;;;30.50;44.80;;;;;;5043011;28;19913;-76
2022/06/30 13:25:21;;;;;;;;;;;30.50;44.80;;;;;;5036507;28;19942;-76
2022/06/30 13:27:47;;;;;;;;;;;30.50;44.70;;;;;;5053859;28;20376;-77
2022/06/30 13:30:13;;;;;;;;;;;30.60;44.80;;;;;;5054433;28;20464;-76
2022/06/30 13:32:38;;;;;;;;;;;30.60;44.80;;;;;;5019085;28;19976;-76
2022/06/30 13:35:04;;;;;;;;;;;30.60;44.90;;;;;;5010939;28;19909;-77
2022/06/30 13:37:29;;;;;;;;;;;30.60;44.80;;;;;;5016821;28;20192;-77
2022/06/30 13:39:55;;;;;;;;;;;30.70;44.70;;;;;;5052282;28;19909;-77
2022/06/30 13:42:20;;;;;;;;;;;30.70;44.60;;;;;;5053577;28;20379;-77
2022/06/30 13:44:45;;;;;;;;;;;30.70;44.70;;;;;;5036199;28;20377;-76
2022/06/30 13:47:11;;;;;;;;;;;30.70;44.70;;;;;;5035367;28;19909;-76
2022/06/30 13:49:40;;;;;;;;;;;30.70;44.70;;;;;;5036150;28;19912;-76
2022/06/30 13:52:05;;;;;;;;;;;30.80;44.70;;;;;;5035049;28;19935;-75
2022/06/30 13:54:31;;;;;;;;;;;30.80;44.70;;;;;;5035969;28;20003;-76
2022/06/30 13:56:56;;;;;;;;;;;30.80;44.60;;;;;;5018237;28;19979;-76
2022/06/30 13:59:22;;;;;;;;;;;30.80;44.50;;;;;;5021120;28;19912;-77
2022/06/30 14:01:47;;;;;;;;;;;30.80;44.50;;;;;;5022448;28;20361;-75
2022/06/30 14:04:16;;;;;;;;;;;30.80;44.40;;;;;;5033375;28;19970;-75
2022/06/30 14:06:42;;;;;;;;;;;30.80;44.60;;;;;;5031361;28;20364;-75
2022/06/30 14:09:07;;;;;;;;;;;30.80;44.60;;;;;;5034831;28;19916;-76
2022/06/30 14:11:32;;;;;;;;;;;30.80;44.50;;;;;;5017881;28;19982;-76
2022/06/30 14:13:58;;;;;;;;;;;30.80;44.30;;;;;;5035002;28;19913;-76
2022/06/30 14:16:24;;;;;;;;;;;30.90;44.60;;;;;;5037469;28;20334;-76
2022/06/30 14:18:49;;;;;;;;;;;30.80;44.60;;;;;;5038320;28;19952;-75
2022/06/30 14:21:15;;;;;;;;;;;30.90;44.50;;;;;;5037817;28;19912;-75
2022/06/30 14:23:40;;;;;;;;;;;30.90;44.70;;;;;;5020161;28;20237;-76
2022/06/30 14:26:05;;;;;;;;;;;31.00;44.80;;;;;;5010862;28;19912;-75
2022/06/30 14:28:31;;;;;;;;;;;31.00;44.80;;;;;;5055714;28;19916;-75
2022/06/30 14:30:56;;;;;;;;;;;30.90;44.70;;;;;;5021470;28;19960;-75
2022/06/30 14:33:22;;;;;;;;;;;30.90;44.70;;;;;;5037175;28;19982;-76
2022/06/30 14:35:47;;;;;;;;;;;31.00;44.80;;;;;;5037958;28;19909;-76